Aviation Digital Data Service (ADDS)

Output produced by METARs form (1405 UTC 19 January 2019)
found at http://www.aviationweather.gov/metar/data/
 
Forecast for: WBGR (MIRI/KALIMANTAN , MY)
Text: TAF WBGR 191100Z 1912/2012 VRB03KT 9999 SCT016
Forecast period: 1200 UTC 19 January 2019 to 1200 UTC 20 January 2019
Forecast type: FROM: standard forecast or significant change
Winds: variable direction winds at 3 MPH (3 knots; 1.5 m/s)
Visibility: 6 or more miles 10+ km)
Ceiling: at least 12,000 feet AGL
Clouds: scattered clouds at 1600 feet AGL
Weather: no significant weather forecast for this period
Text: TEMPO 1912/1916 06010KT 4000 TSRA SCT014 FEW015CB
Forecast period: 1200 to 1600 UTC 19 January 2019
Forecast type: TEMPORARY: The following changes expected for less than half the time period
Winds: from the ENE (60 degrees) at 12 MPH (10 knots; 5.1 m/s)
Visibility: 2.49 miles (4.01 km)
Ceiling: at least 12,000 feet AGL
Clouds: scattered clouds at 1400 feet AGL
few clouds at 1500 feet AGL
Weather: TSRA  (rain associated with thunderstorm(s))